Time;durP1;ratioP1;P1;durP2;ratioP2;P2;SDS_P1;SDS_P2;PMS_P1;PMS_P2;Temp;Humidity;BMP_temperature;BMP_pressure;BME280_temperature;BME280_humidity;BME280_pressure;Samples;Min_cycle;Max_cycle;Signal;HPM_P1;HPM_P2
2022/07/03 00:02:21;;;;;;;;;;;;;;;;;;5031178;28;20300;-87
2022/07/03 00:04:46;;;;;;;;;;;;;;;;;;5031707;28;19967;-86
2022/07/03 00:07:11;;;;;;;;;;;;;;;;;;5029676;28;19927;-86
2022/07/03 00:09:36;;;;;;;;;;;;;;;;;;5030512;28;19956;-87
2022/07/03 00:12:02;;;;;;;;;;;;;;;;;;5032076;28;19996;-86
2022/07/03 00:14:27;;;;;;;;;;;;;;;;;;5029084;28;19913;-85
2022/07/03 00:16:52;;;;;;;;;;;;;;;;;;5027334;28;19913;-85
2022/07/03 00:19:17;;;;;;;;;;;;;;;;;;5028706;28;19921;-87
2022/07/03 00:21:42;;;;;;;;;;;;;;;;;;5027666;28;20362;-88
2022/07/03 00:24:07;;;;;;;;;;;;;;;;;;5027746;28;19921;-86
2022/07/03 00:26:33;;;;;;;;;;;;;;;;;;5026996;28;19921;-86
2022/07/03 00:28:59;;;;;;;;;;;;;;;;;;5029249;28;20063;-87
2022/07/03 00:31:24;;;;;;;;;;;;;;;;;;5031349;28;20316;-87
2022/07/03 00:33:49;;;;;;;;;;;;;;;;;;5029370;28;19921;-87
2022/07/03 00:36:14;;;;;;;;;;;;;;;;;;5026341;28;19955;-87
2022/07/03 00:38:39;;;;;;;;;;;;;;;;;;5027740;28;19921;-88
2022/07/03 00:41:05;;;;;;;;;;;;;;;;;;5028838;28;19959;-88
2022/07/03 00:43:30;;;;;;;;;;;;;;;;;;5028099;28;20024;-88
2022/07/03 00:45:55;;;;;;;;;;;;;;;;;;5030596;28;19919;-87
2022/07/03 00:48:20;;;;;;;;;;;;;;;;;;5033561;28;19921;-88
2022/07/03 00:50:45;;;;;;;;;;;;;;;;;;5030038;28;19917;-88
2022/07/03 00:53:11;;;;;;;;;;;;;;;;;;5029560;28;19914;-88
2022/07/03 00:55:36;;;;;;;;;;;;;;;;;;5026637;28;20373;-87
2022/07/03 00:58:02;;;;;;;;;;;;;;;;;;5029301;28;19920;-87
2022/07/03 01:00:27;;;;;;;;;;;;;;;;;;5028949;28;19913;-87
2022/07/03 01:02:52;;;;;;;;;;;;;;;;;;5027846;28;19917;-86
2022/07/03 01:05:17;;;;;;;;;;;;;;;;;;5026320;28;21271;-87
2022/07/03 01:07:42;;;;;;;;;;;;;;;;;;5026745;28;20380;-87
2022/07/03 01:10:08;;;;;;;;;;;;;;;;;;5026265;28;19960;-86
2022/07/03 01:12:33;;;;;;;;;;;;;;;;;;5030397;28;19920;-87
2022/07/03 01:14:59;;;;;;;;;;;;;;;;;;5026203;28;19974;-88
2022/07/03 01:17:24;;;;;;;;;;;;;;;;;;5027407;28;19917;-86
2022/07/03 01:19:50;;;;;;;;;;;;;;;;;;5027380;28;19954;-87
2022/07/03 01:22:15;;;;;;;;;;;;;;;;;;5025848;28;19913;-86
2022/07/03 01:24:40;;;;;;;;;;;;;;;;;;5027161;28;20422;-87
2022/07/03 01:27:05;;;;;;;;;;;;;;;;;;5023022;28;19920;-86
2022/07/03 01:29:30;;;;;;;;;;;;;;;;;;5026018;28;20284;-85
2022/07/03 01:31:56;;;;;;;;;;;;;;;;;;5026662;28;19917;-87
2022/07/03 01:34:21;;;;;;;;;;;;;;;;;;5025598;28;19936;-86
2022/07/03 01:36:46;;;;;;;;;;;;;;;;;;5024079;28;19921;-87
2022/07/03 01:39:12;;;;;;;;;;;;;;;;;;5028318;28;19913;-86
2022/07/03 01:41:37;;;;;;;;;;;;;;;;;;5027108;28;19968;-87
2022/07/03 01:44:02;;;;;;;;;;;;;;;;;;5027722;28;20384;-87
2022/07/03 01:46:27;;;;;;;;;;;;;;;;;;5029839;28;19920;-87
2022/07/03 01:48:52;;;;;;;;;;;;;;;;;;5030628;28;19932;-87
2022/07/03 01:51:30;;;;;;;;;;;;;;;;;;;;;
2022/07/03 01:54:06;;;;;;;;;;;;;;;;;;;;;
2022/07/03 01:56:32;;;;;;;;;;;;;;;;;;5015227;28;20303;-87
2022/07/03 01:59:05;;;;;;;;;;;;;;;;;;5025606;28;19920;-86
2022/07/03 02:01:30;;;;;;;;;;;;;;;;;;5021547;28;19967;-88
2022/07/03 02:03:55;;;;;;;;;;;;;;;;;;5028477;28;19924;-87
2022/07/03 02:06:20;;;;;;;;;;;;;;;;;;5025034;28;19956;-87
2022/07/03 02:08:45;;;;;;;;;;;;;;;;;;5029108;28;19931;-86
2022/07/03 02:11:13;;;;;;;;;;;;;;;;;;5029407;28;20950;-87
2022/07/03 02:13:41;;;;;;;;;;;;;;;;;;5030610;28;20281;-87
2022/07/03 02:16:10;;;;;;;;;;;;;;;;;;5029385;28;19928;-87
2022/07/03 02:18:35;;;;;;;;;;;;;;;;;;5033065;28;19913;-86
2022/07/03 02:21:21;;;;;;;;;;;;;;;;;;5028896;28;20015;-86
2022/07/03 02:23:56;;;;;;;;;;;;;;;;;;5024348;28;20391;-86
2022/07/03 02:26:24;;;;;;;;;;;;;;;;;;5027489;28;20023;-86
2022/07/03 02:28:51;;;;;;;;;;;;;;;;;;5028631;28;19917;-85
2022/07/03 02:31:16;;;;;;;;;;;;;;;;;;5027161;28;20400;-86
2022/07/03 02:33:41;;;;;;;;;;;;;;;;;;5027917;28;19917;-87
2022/07/03 02:36:18;;;;;;;;;;;;;;;;;;5028969;28;19913;-87
2022/07/03 02:38:44;;;;;;;;;;;;;;;;;;5026160;28;19913;-88
2022/07/03 02:41:10;;;;;;;;;;;;;;;;;;5029279;28;20016;-88
2022/07/03 02:49:07;;;;;;;;;;;;;;;;;;5028926;28;20399;-87
2022/07/03 02:51:32;;;;;;;;;;;;;;;;;;5021839;28;19921;-88
2022/07/03 02:53:59;;;;;;;;;;;;;;;;;;5024667;28;20035;-87
2022/07/03 02:56:24;;;;;;;;;;;;;;;;;;5028070;28;19912;-87
2022/07/03 02:58:51;;;;;;;;;;;;;;;;;;5029047;28;19923;-88
2022/07/03 03:01:17;;;;;;;;;;;;;;;;;;5026498;28;20292;-87
2022/07/03 03:03:42;;;;;;;;;;;;;;;;;;5028866;28;19924;-88
2022/07/03 03:06:07;;;;;;;;;;;;;;;;;;5028527;28;20134;-87
2022/07/03 03:08:32;;;;;;;;;;;;;;;;;;5026016;28;19963;-87
2022/07/03 03:10:57;;;;;;;;;;;;;;;;;;5028422;28;19940;-87
2022/07/03 03:13:22;;;;;;;;;;;;;;;;;;5033741;28;19912;-87
2022/07/03 03:15:48;;;;;;;;;;;;;;;;;;5026438;28;20416;-86
2022/07/03 03:18:13;;;;;;;;;;;;;;;;;;5027638;28;19927;-87
2022/07/03 03:20:41;;;;;;;;;;;;;;;;;;5032280;28;19955;-87
2022/07/03 03:23:08;;;;;;;;;;;;;;;;;;5027185;28;20331;-87
2022/07/03 03:25:33;;;;;;;;;;;;;;;;;;5031666;28;19961;-87
2022/07/03 03:27:58;;;;;;;;;;;;;;;;;;5028786;28;20402;-87
2022/07/03 03:30:24;;;;;;;;;;;;;;;;;;5029358;28;20016;-87
2022/07/03 03:32:49;;;;;;;;;;;;;;;;;;5026120;28;19939;-87
2022/07/03 03:35:17;;;;;;;;;;;;;;;;;;5029364;28;20376;-86
2022/07/03 03:37:44;;;;;;;;;;;;;;;;;;5035511;28;20458;-86
2022/07/03 03:40:12;;;;;;;;;;;;;;;;;;5028632;28;19924;-87
2022/07/03 03:42:37;;;;;;;;;;;;;;;;;;5030504;28;19992;-87
2022/07/03 03:45:02;;;;;;;;;;;;;;;;;;5029021;28;20000;-87
2022/07/03 03:47:27;;;;;;;;;;;;;;;;;;5028962;28;19956;-87
2022/07/03 03:52:44;;;;;;;;;;;;;;;;;;5030891;28;19913;-87
2022/07/03 03:55:12;;;;;;;;;;;;;;;;;;5031732;28;19917;-87
2022/07/03 03:57:37;;;;;;;;;;;;;;;;;;5033832;28;19909;-87
2022/07/03 04:00:03;;;;;;;;;;;;;;;;;;5030636;28;19920;-87
2022/07/03 04:02:28;;;;;;;;;;;;;;;;;;5026770;28;19917;-87
2022/07/03 04:04:53;;;;;;;;;;;;;;;;;;5031370;28;19917;-87
2022/07/03 04:07:18;;;;;;;;;;;;;;;;;;5035694;28;19917;-87
2022/07/03 04:09:44;;;;;;;;;;;;;;;;;;5031109;28;19939;-88
2022/07/03 04:12:09;;;;;;;;;;;;;;;;;;5028356;28;19943;-87
2022/07/03 04:14:34;;;;;;;;;;;;;;;;;;5025489;28;19953;-87
2022/07/03 04:16:59;;;;;;;;;;;;;;;;;;5026407;28;19925;-87
2022/07/03 04:19:25;;;;;;;;;;;;;;;;;;5025538;28;19913;-87
2022/07/03 04:21:51;;;;;;;;;;;;;;;;;;5030712;28;19921;-88
2022/07/03 04:24:16;;;;;;;;;;;;;;;;;;5027094;28;19913;-86
2022/07/03 04:26:42;;;;;;;;;;;;;;;;;;5028876;28;19920;-87
2022/07/03 04:29:07;;;;;;;;;;;;;;;;;;5028098;28;20327;-87
2022/07/03 04:31:32;;;;;;;;;;;;;;;;;;5025258;28;20006;-87
2022/07/03 04:33:57;;;;;;;;;;;;;;;;;;5030305;28;19917;-87
2022/07/03 04:36:22;;;;;;;;;;;;;;;;;;5026055;28;19936;-87
2022/07/03 04:38:56;;;;;;;;;;;;;;;;;;5030157;28;19935;-86
2022/07/03 04:41:21;;;;;;;;;;;;;;;;;;5026404;28;19998;-88
2022/07/03 04:43:46;;;;;;;;;;;;;;;;;;5026314;28;19996;-87
2022/07/03 04:46:11;;;;;;;;;;;;;;;;;;5029294;28;19944;-87
2022/07/03 04:48:37;;;;;;;;;;;;;;;;;;5027844;28;20023;-87
2022/07/03 04:51:02;;;;;;;;;;;;;;;;;;5029130;28;19924;-87
2022/07/03 04:53:27;;;;;;;;;;;;;;;;;;5027671;28;20285;-87
2022/07/03 04:55:52;;;;;;;;;;;;;;;;;;5028748;28;19970;-86
2022/07/03 04:58:17;;;;;;;;;;;;;;;;;;5031163;28;20172;-86
2022/07/03 05:00:43;;;;;;;;;;;;;;;;;;5028817;28;19920;-87
2022/07/03 05:03:08;;;;;;;;;;;;;;;;;;5030681;28;19917;-87
2022/07/03 05:05:33;;;;;;;;;;;;;;;;;;5031699;28;19936;-87
2022/07/03 05:07:58;;;;;;;;;;;;;;;;;;5028577;28;19917;-87
2022/07/03 05:10:23;;;;;;;;;;;;;;;;;;5030387;28;19952;-87
2022/07/03 05:12:49;;;;;;;;;;;;;;;;;;5028273;28;20018;-86
2022/07/03 05:15:24;;;;;;;;;;;;;;;;;;5027930;28;19913;-87
2022/07/03 05:17:49;;;;;;;;;;;;;;;;;;5027047;28;20399;-86
2022/07/03 05:20:24;;;;;;;;;;;;;;;;;;5026745;28;19960;-87
2022/07/03 05:22:52;;;;;;;;;;;;;;;;;;5030180;28;19917;-88
2022/07/03 05:25:17;;;;;;;;;;;;;;;;;;5028319;28;19928;-89
2022/07/03 05:27:50;;;;;;;;;;;;;;;;;;5030465;28;20175;-88
2022/07/03 05:30:15;;;;;;;;;;;;;;;;;;5023647;28;19936;-86
2022/07/03 05:32:40;;;;;;;;;;;;;;;;;;5026746;28;19917;-88
2022/07/03 05:35:14;;;;;;;;;;;;;;;;;;5028007;28;20392;-86
2022/07/03 05:37:40;;;;;;;;;;;;;;;;;;5032053;28;19920;-88
2022/07/03 05:40:05;;;;;;;;;;;;;;;;;;5030545;28;20172;-87
2022/07/03 05:42:30;;;;;;;;;;;;;;;;;;5028776;28;19991;-87
2022/07/03 05:44:55;;;;;;;;;;;;;;;;;;5028755;28;20019;-87
2022/07/03 05:47:21;;;;;;;;;;;;;;;;;;5030823;28;19967;-89
2022/07/03 05:49:48;;;;;;;;;;;;;;;;;;5033153;28;20008;-87
2022/07/03 05:52:16;;;;;;;;;;;;;;;;;;5028328;28;19923;-87
2022/07/03 05:54:41;;;;;;;;;;;;;;;;;;5029618;28;20010;-88
2022/07/03 05:57:06;;;;;;;;;;;;;;;;;;5028576;28;19913;-87
2022/07/03 05:59:31;;;;;;;;;;;;;;;;;;5024743;28;19914;-87
2022/07/03 06:01:56;;;;;;;;;;;;;;;;;;5030944;28;20410;-87
2022/07/03 06:04:22;;;;;;;;;;;;;;;;;;5026754;28;20380;-87
2022/07/03 06:06:47;;;;;;;;;;;;;;;;;;5023042;28;19910;-86
2022/07/03 06:09:12;;;;;;;;;;;;;;;;;;5030909;28;19924;-88
2022/07/03 06:11:37;;;;;;;;;;;;;;;;;;5023594;28;20188;-85
2022/07/03 06:14:03;;;;;;;;;;;;;;;;;;5025841;28;19920;-87
2022/07/03 06:16:28;;;;;;;;;;;;;;;;;;5028721;28;19929;-87
2022/07/03 06:18:53;;;;;;;;;;;;;;;;;;5028667;28;19927;-86
2022/07/03 06:21:21;;;;;;;;;;;;;;;;;;5028588;28;20225;-86
2022/07/03 06:23:46;;;;;;;;;;;;;;;;;;5036931;28;19912;-88
2022/07/03 06:26:11;;;;;;;;;;;;;;;;;;5030837;28;20439;-87
2022/07/03 06:28:36;;;;;;;;;;;;;;;;;;5028622;28;19913;-86
2022/07/03 06:31:02;;;;;;;;;;;;;;;;;;5027753;28;19941;-87
2022/07/03 06:33:27;;;;;;;;;;;;;;;;;;5023838;28;19910;-86
2022/07/03 06:35:52;;;;;;;;;;;;;;;;;;5029921;28;19921;-87
2022/07/03 06:38:17;;;;;;;;;;;;;;;;;;5036680;28;19920;-85
2022/07/03 06:40:42;;;;;;;;;;;;;;;;;;5029246;28;19936;-87
2022/07/03 06:43:08;;;;;;;;;;;;;;;;;;5032022;28;20312;-86
2022/07/03 06:45:33;;;;;;;;;;;;;;;;;;5025196;28;20004;-86
2022/07/03 06:47:58;;;;;;;;;;;;;;;;;;5028739;28;19913;-87
2022/07/03 06:50:23;;;;;;;;;;;;;;;;;;5027007;28;19940;-86
2022/07/03 06:52:48;;;;;;;;;;;;;;;;;;5026926;28;19960;-88
2022/07/03 06:55:14;;;;;;;;;;;;;;;;;;5033478;28;19913;-87
2022/07/03 06:57:39;;;;;;;;;;;;;;;;;;5031463;28;19916;-88
2022/07/03 07:00:04;;;;;;;;;;;;;;;;;;5026206;28;19918;-87
2022/07/03 07:02:29;;;;;;;;;;;;;;;;;;5031050;28;19956;-88
2022/07/03 07:04:55;;;;;;;;;;;;;;;;;;5026321;28;19937;-88
2022/07/03 07:07:20;;;;;;;;;;;;;;;;;;5026614;28;19983;-87
2022/07/03 07:09:45;;;;;;;;;;;;;;;;;;5031813;28;19928;-88
2022/07/03 07:12:10;;;;;;;;;;;;;;;;;;5033154;28;19917;-87
2022/07/03 07:14:35;;;;;;;;;;;;;;;;;;5033270;28;20036;-87
2022/07/03 07:17:00;;;;;;;;;;;;;;;;;;5032287;28;19917;-86
2022/07/03 07:19:26;;;;;;;;;;;;;;;;;;5035108;28;19921;-87
2022/07/03 07:21:51;;;;;;;;;;;;;;;;;;5032511;28;20440;-87
2022/07/03 07:24:16;;;;;;;;;;;;;;;;;;5029422;28;20015;-86
2022/07/03 07:26:41;;;;;;;;;;;;;;;;;;5035781;28;19975;-87
2022/07/03 07:29:06;;;;;;;;;;;;;;;;;;5035567;28;19928;-87
2022/07/03 07:31:32;;;;;;;;;;;;;;;;;;5031940;28;19978;-89
2022/07/03 07:33:57;;;;;;;;;;;;;;;;;;5034120;28;19919;-86
2022/07/03 07:36:22;;;;;;;;;;;;;;;;;;5030326;28;20384;-87
2022/07/03 07:38:47;;;;;;;;;;;;;;;;;;5030167;28;20160;-87
2022/07/03 07:41:12;;;;;;;;;;;;;;;;;;5031882;28;19917;-87
2022/07/03 07:43:41;;;;;;;;;;;;;;;;;;5025732;28;19951;-87
2022/07/03 07:46:06;;;;;;;;;;;;;;;;;;5023830;28;20399;-86
2022/07/03 07:48:31;;;;;;;;;;;;;;;;;;5026531;28;19956;-87
2022/07/03 07:50:56;;;;;;;;;;;;;;;;;;5027307;28;20285;-85
2022/07/03 07:53:21;;;;;;;;;;;;;;;;;;5026451;28;20012;-85
2022/07/03 07:55:46;;;;;;;;;;;;;;;;;;5025544;28;19959;-87
2022/07/03 07:58:12;;;;;;;;;;;;;;;;;;5023893;28;19920;-88
2022/07/03 08:05:35;;;;;;;;;;;;;;;;;;5029719;28;19920;-85
2022/07/03 08:06:06;;;;;;;;;;;;;;;;;;5031902;28;19935;-84
2022/07/03 08:08:31;;;;;;;;;;;;;;;;;;5030792;28;20372;-86
2022/07/03 08:10:56;;;;;;;;;;;;;;;;;;5034086;28;19939;-84
2022/07/03 08:13:22;;;;;;;;;;;;;;;;;;5033882;28;19912;-86
2022/07/03 08:15:47;;;;;;;;;;;;;;;;;;5031309;28;20408;-86
2022/07/03 08:18:12;;;;;;;;;;;;;;;;;;5030247;28;19949;-86
2022/07/03 08:20:37;;;;;;;;;;;;;;;;;;5030411;28;19917;-84
2022/07/03 08:23:02;;;;;;;;;;;;;;;;;;5029683;28;19917;-85
2022/07/03 08:25:28;;;;;;;;;;;;;;;;;;5025775;28;20320;-86
2022/07/03 08:27:53;;;;;;;;;;;;;;;;;;5025409;28;19923;-85
2022/07/03 08:30:18;;;;;;;;;;;;;;;;;;5023906;28;19925;-85
2022/07/03 08:32:44;;;;;;;;;;;;;;;;;;5028815;28;19917;-87
2022/07/03 08:35:09;;;;;;;;;;;;;;;;;;5024968;28;20000;-86
2022/07/03 08:37:34;;;;;;;;;;;;;;;;;;5030868;28;20003;-85
2022/07/03 08:40:00;;;;;;;;;;;;;;;;;;5027303;28;19956;-85
2022/07/03 08:42:25;;;;;;;;;;;;;;;;;;5031211;28;19913;-86
2022/07/03 08:44:50;;;;;;;;;;;;;;;;;;5029969;28;20205;-86
2022/07/03 08:47:16;;;;;;;;;;;;;;;;;;5024408;28;19917;-86
2022/07/03 08:49:41;;;;;;;;;;;;;;;;;;5028621;28;19917;-85
2022/07/03 08:52:07;;;;;;;;;;;;;;;;;;5020150;28;19925;-86
2022/07/03 08:54:32;;;;;;;;;;;;;;;;;;5027874;28;19917;-86
2022/07/03 08:56:57;;;;;;;;;;;;;;;;;;5026404;28;20011;-86
2022/07/03 08:59:22;;;;;;;;;;;;;;;;;;5029735;28;19932;-86
2022/07/03 09:01:48;;;;;;;;;;;;;;;;;;5027135;28;19913;-86
2022/07/03 09:04:13;;;;;;;;;;;;;;;;;;5028960;28;19986;-85
2022/07/03 09:06:38;;;;;;;;;;;;;;;;;;5024436;28;20277;-86
2022/07/03 09:09:03;;;;;;;;;;;;;;;;;;5021058;28;20004;-85
2022/07/03 09:11:28;;;;;;;;;;;;;;;;;;5024804;28;20089;-87
2022/07/03 09:13:54;;;;;;;;;;;;;;;;;;5030225;28;19961;-86
2022/07/03 09:16:19;;;;;;;;;;;;;;;;;;5028444;28;20148;-85
2022/07/03 09:18:44;;;;;;;;;;;;;;;;;;5027724;28;19920;-85
2022/07/03 09:21:09;;;;;;;;;;;;;;;;;;5025370;28;20003;-86
2022/07/03 09:23:34;;;;;;;;;;;;;;;;;;5027662;28;19944;-86
2022/07/03 09:25:59;;;;;;;;;;;;;;;;;;5028033;28;19935;-86
2022/07/03 09:28:25;;;;;;;;;;;;;;;;;;5031025;28;19909;-85
2022/07/03 09:30:50;;;;;;;;;;;;;;;;;;5025468;28;19920;-86
2022/07/03 09:33:15;;;;;;;;;;;;;;;;;;5026286;28;19914;-86
2022/07/03 09:35:40;;;;;;;;;;;;;;;;;;5030702;28;20336;-86
2022/07/03 09:38:05;;;;;;;;;;;;;;;;;;5022016;28;19913;-85
2022/07/03 09:40:30;;;;;;;;;;;;;;;;;;5027256;28;20080;-86
2022/07/03 09:42:56;;;;;;;;;;;;;;;;;;5030638;28;19978;-86
2022/07/03 09:45:21;;;;;;;;;;;;;;;;;;5026036;28;19995;-85
2022/07/03 09:47:46;;;;;;;;;;;;;;;;;;5026452;28;19913;-87
2022/07/03 09:50:13;;;;;;;;;;;;;;;;;;5027722;28;19921;-86
2022/07/03 09:52:38;;;;;;;;;;;;;;;;;;5028105;28;19925;-85
2022/07/03 09:55:03;;;;;;;;;;;;;;;;;;5029036;28;19913;-86
2022/07/03 09:57:29;;;;;;;;;;;;;;;;;;5031266;28;19919;-87
2022/07/03 09:59:54;;;;;;;;;;;;;;;;;;5026859;28;19917;-86
2022/07/03 10:02:19;;;;;;;;;;;;;;;;;;5022701;28;19913;-85
2022/07/03 10:04:44;;;;;;;;;;;;;;;;;;5027482;28;19947;-87
2022/07/03 10:07:09;;;;;;;;;;;;;;;;;;5022761;28;19913;-86
2022/07/03 10:09:35;;;;;;;;;;;;;;;;;;5023713;28;19928;-86
2022/07/03 10:12:00;;;;;;;;;;;;;;;;;;5027029;28;20007;-86
2022/07/03 10:14:25;;;;;;;;;;;;;;;;;;5027380;28;19940;-86
2022/07/03 10:16:50;;;;;;;;;;;;;;;;;;5023350;28;19917;-85
2022/07/03 10:19:15;;;;;;;;;;;;;;;;;;5020811;28;19913;-84
2022/07/03 10:21:41;;;;;;;;;;;;;;;;;;5027971;28;19917;-84
2022/07/03 10:24:06;;;;;;;;;;;;;;;;;;5031932;28;20392;-85
2022/07/03 10:26:31;;;;;;;;;;;;;;;;;;5026907;28;19913;-84
2022/07/03 10:28:56;;;;;;;;;;;;;;;;;;5027789;28;19936;-85
2022/07/03 10:31:21;;;;;;;;;;;;;;;;;;5027668;28;20538;-84
2022/07/03 10:33:46;;;;;;;;;;;;;;;;;;5022781;28;20179;-84
2022/07/03 10:36:12;;;;;;;;;;;;;;;;;;5024257;28;19921;-85
2022/07/03 10:38:40;;;;;;;;;;;;;;;;;;5025571;28;19951;-84
2022/07/03 10:46:33;;;;;;;;;;;;;;;;;;5025253;28;19987;-85
2022/07/03 10:48:58;;;;;;;;;;;;;;;;;;5024593;28;19918;-84
2022/07/03 10:51:23;;;;;;;;;;;;;;;;;;5035662;28;20043;-83
2022/07/03 10:53:49;;;;;;;;;;;;;;;;;;5029332;28;19917;-84
2022/07/03 10:56:17;;;;;;;;;;;;;;;;;;5028939;28;19909;-84
2022/07/03 10:58:42;;;;;;;;;;;;;;;;;;5030616;28;20036;-85
2022/07/03 11:01:08;;;;;;;;;;;;;;;;;;5031600;28;19929;-84
2022/07/03 11:03:33;;;;;;;;;;;;;;;;;;5031155;28;20367;-84
2022/07/03 11:05:58;;;;;;;;;;;;;;;;;;5031414;28;20431;-84
2022/07/03 11:08:24;;;;;;;;;;;;;;;;;;5028004;28;20273;-85
2022/07/03 11:11:54;;;;;;;;;;;;;;;;;;5029682;28;19917;-84
2022/07/03 11:13:34;;;;;;;;;;;;;;;;;;5022066;28;19964;-84
2022/07/03 11:15:59;;;;;;;;;;;;;;;;;;5028413;28;20535;-85
2022/07/03 11:18:24;;;;;;;;;;;;;;;;;;5033134;28;19912;-84
2022/07/03 11:20:49;;;;;;;;;;;;;;;;;;5030362;28;19913;-84
2022/07/03 11:23:15;;;;;;;;;;;;;;;;;;5029610;28;19917;-84
2022/07/03 11:25:40;;;;;;;;;;;;;;;;;;5028873;28;19994;-84
2022/07/03 11:28:05;;;;;;;;;;;;;;;;;;5028431;28;19920;-84
2022/07/03 11:30:31;;;;;;;;;;;;;;;;;;5034949;28;19953;-83
2022/07/03 11:33:00;;;;;;;;;;;;;;;;;;5026943;28;20284;-84
2022/07/03 11:35:25;;;;;;;;;;;;;;;;;;5027992;28;19913;-85
2022/07/03 11:37:50;;;;;;;;;;;;;;;;;;5031230;28;19917;-84
2022/07/03 11:40:15;;;;;;;;;;;;;;;;;;5029112;28;19917;-85
2022/07/03 11:42:40;;;;;;;;;;;;;;;;;;5027256;28;20035;-84
2022/07/03 11:45:06;;;;;;;;;;;;;;;;;;5023125;28;19913;-85
2022/07/03 11:47:31;;;;;;;;;;;;;;;;;;5031896;28;20003;-85
2022/07/03 11:49:59;;;;;;;;;;;;;;;;;;5032116;28;19921;-85
2022/07/03 11:52:24;;;;;;;;;;;;;;;;;;5027810;28;20364;-86
2022/07/03 11:54:49;;;;;;;;;;;;;;;;;;5030132;28;19920;-84
2022/07/03 11:57:14;;;;;;;;;;;;;;;;;;5025445;28;19913;-85
2022/07/03 11:59:42;;;;;;;;;;;;;;;;;;5030115;28;19960;-85
2022/07/03 12:02:08;;;;;;;;;;;;;;;;;;5030798;28;20323;-84
2022/07/03 12:04:33;;;;;;;;;;;;;;;;;;5027840;28;19967;-85
2022/07/03 12:06:58;;;;;;;;;;;;;;;;;;5029262;28;19996;-85
2022/07/03 12:09:23;;;;;;;;;;;;;;;;;;5029674;28;19921;-85
2022/07/03 12:11:49;;;;;;;;;;;;;;;;;;5030251;28;19939;-85
2022/07/03 12:14:14;;;;;;;;;;;;;;;;;;5031119;28;19921;-84
2022/07/03 12:16:39;;;;;;;;;;;;;;;;;;5035323;28;19917;-84
2022/07/03 12:19:05;;;;;;;;;;;;;;;;;;5026724;28;19921;-85
2022/07/03 12:21:30;;;;;;;;;;;;;;;;;;5029173;28;20715;-85
2022/07/03 12:23:55;;;;;;;;;;;;;;;;;;5027562;28;20405;-84
2022/07/03 12:26:20;;;;;;;;;;;;;;;;;;5029251;28;19924;-84
2022/07/03 12:28:46;;;;;;;;;;;;;;;;;;5025644;28;19927;-83
2022/07/03 12:31:11;;;;;;;;;;;;;;;;;;5030476;28;19917;-83
2022/07/03 12:33:37;;;;;;;;;;;;;;;;;;5026019;28;20016;-84
2022/07/03 12:36:02;;;;;;;;;;;;;;;;;;5026725;28;19913;-84
2022/07/03 12:38:27;;;;;;;;;;;;;;;;;;5026131;28;20486;-84
2022/07/03 12:40:55;;;;;;;;;;;;;;;;;;5028926;28;19917;-84
2022/07/03 12:43:20;;;;;;;;;;;;;;;;;;5032819;28;19916;-85
2022/07/03 12:45:45;;;;;;;;;;;;;;;;;;5027770;28;20497;-84
2022/07/03 12:48:10;;;;;;;;;;;;;;;;;;5028345;28;19917;-84
2022/07/03 12:50:36;;;;;;;;;;;;;;;;;;5021986;28;19927;-84
2022/07/03 12:53:01;;;;;;;;;;;;;;;;;;5025271;28;19932;-86
2022/07/03 12:55:27;;;;;;;;;;;;;;;;;;5027194;28;20422;-84
2022/07/03 13:00:55;;;;;;;;;;;;;;;;;;5047340;28;19913;-84
2022/07/03 13:03:21;;;;;;;;;;;;;;;;;;5043712;28;19928;-84
2022/07/03 13:05:47;;;;;;;;;;;;;;;;;;5030922;28;19917;-86
2022/07/03 13:08:15;;;;;;;;;;;;;;;;;;5026064;28;20393;-84
2022/07/03 13:10:40;;;;;;;;;;;;;;;;;;5026614;28;20270;-84
2022/07/03 13:13:05;;;;;;;;;;;;;;;;;;5026486;28;19933;-84
2022/07/03 13:15:30;;;;;;;;;;;;;;;;;;5025487;28;20064;-84
2022/07/03 13:17:56;;;;;;;;;;;;;;;;;;5029623;28;20376;-84
2022/07/03 13:20:21;;;;;;;;;;;;;;;;;;5025676;28;19998;-84
2022/07/03 13:22:46;;;;;;;;;;;;;;;;;;5024252;28;19921;-84
2022/07/03 13:25:11;;;;;;;;;;;;;;;;;;5025452;28;20433;-83
2022/07/03 13:27:36;;;;;;;;;;;;;;;;;;5034750;28;19913;-83
2022/07/03 13:30:01;;;;;;;;;;;;;;;;;;5027099;28;20484;-84
2022/07/03 13:32:26;;;;;;;;;;;;;;;;;;5024227;28;19920;-85
2022/07/03 13:34:52;;;;;;;;;;;;;;;;;;5027215;28;20282;-83
2022/07/03 13:37:17;;;;;;;;;;;;;;;;;;5029850;28;19919;-85
2022/07/03 13:39:42;;;;;;;;;;;;;;;;;;5021705;28;19991;-83
2022/07/03 13:42:10;;;;;;;;;;;;;;;;;;5030297;28;19916;-84
2022/07/03 13:44:35;;;;;;;;;;;;;;;;;;5031063;28;20091;-84
2022/07/03 13:47:01;;;;;;;;;;;;;;;;;;5030174;28;20545;-83
2022/07/03 13:49:26;;;;;;;;;;;;;;;;;;5021129;28;20012;-84
2022/07/03 13:51:51;;;;;;;;;;;;;;;;;;5025355;28;19921;-84
2022/07/03 13:54:16;;;;;;;;;;;;;;;;;;5028458;28;19917;-84
2022/07/03 13:56:42;;;;;;;;;;;;;;;;;;5025739;28;20355;-85
2022/07/03 13:59:07;;;;;;;;;;;;;;;;;;5025853;28;19944;-84
2022/07/03 14:01:32;;;;;;;;;;;;;;;;;;5028667;28;20020;-84
2022/07/03 14:03:57;;;;;;;;;;;;;;;;;;5025390;28;19920;-84
2022/07/03 14:06:25;;;;;;;;;;;;;;;;;;5030958;28;19953;-85
2022/07/03 14:08:50;;;;;;;;;;;;;;;;;;5023071;28;19917;-84
2022/07/03 14:11:15;;;;;;;;;;;;;;;;;;5026069;28;19958;-84
2022/07/03 14:13:40;;;;;;;;;;;;;;;;;;5020319;28;21785;-83
2022/07/03 14:16:06;;;;;;;;;;;;;;;;;;5031822;28;19959;-84
2022/07/03 14:18:31;;;;;;;;;;;;;;;;;;5027512;28;20012;-84
2022/07/03 14:20:56;;;;;;;;;;;;;;;;;;5031539;28;20312;-84
2022/07/03 14:23:21;;;;;;;;;;;;;;;;;;5025312;28;20004;-85
2022/07/03 14:25:46;;;;;;;;;;;;;;;;;;5027107;28;21753;-83
2022/07/03 14:33:39;;;;;;;;;;;;;;;;;;5028961;28;19935;-83
2022/07/03 14:36:05;;;;;;;;;;;;;;;;;;5025280;28;20320;-85
2022/07/03 14:38:30;;;;;;;;;;;;;;;;;;5030629;28;20024;-85
2022/07/03 14:40:57;;;;;;;;;;;;;;;;;;5029789;28;21850;-84
2022/07/03 14:43:22;;;;;;;;;;;;;;;;;;5054671;22;20038;-84
2022/07/03 14:45:47;;;;;;;;;;;;;;;;;;5043844;28;19927;-84
2022/07/03 14:48:12;;;;;;;;;;;;;;;;;;5048348;28;19939;-83
2022/07/03 14:50:38;;;;;;;;;;;;;;;;;;5049134;28;19932;-84
2022/07/03 14:53:03;;;;;;;;;;;;;;;;;;5049412;28;19916;-85
2022/07/03 14:55:28;;;;;;;;;;;;;;;;;;5048493;28;20612;-82
2022/07/03 14:57:53;;;;;;;;;;;;;;;;;;5043849;28;19923;-83
2022/07/03 15:00:18;;;;;;;;;;;;;;;;;;5046179;28;19909;-84
2022/07/03 15:02:44;;;;;;;;;;;;;;;;;;5042248;28;20315;-83
2022/07/03 15:05:09;;;;;;;;;;;;;;;;;;5041628;28;19974;-84
2022/07/03 15:07:35;;;;;;;;;;;;;;;;;;5045644;28;19909;-85
2022/07/03 15:10:00;;;;;;;;;;;;;;;;;;5042210;28;19928;-83
2022/07/03 15:12:28;;;;;;;;;;;;;;;;;;5045134;28;19912;-84
2022/07/03 15:14:53;;;;;;;;;;;;;;;;;;5042830;28;19917;-84
2022/07/03 15:17:19;;;;;;;;;;;;;;;;;;5044001;28;20016;-83
2022/07/03 15:19:44;;;;;;;;;;;;;;;;;;5040808;28;19913;-83
2022/07/03 15:22:10;;;;;;;;;;;;;;;;;;5044340;28;19916;-83
2022/07/03 15:24:35;;;;;;;;;;;;;;;;;;5040607;28;19912;-84
2022/07/03 15:27:00;;;;;;;;;;;;;;;;;;5046758;28;19920;-83
2022/07/03 15:29:25;;;;;;;;;;;;;;;;;;5041664;28;19971;-83
2022/07/03 15:31:50;;;;;;;;;;;;;;;;;;5043970;28;19917;-84
2022/07/03 15:34:16;;;;;;;;;;;;;;;;;;5046899;28;19916;-84
2022/07/03 15:36:41;;;;;;;;;;;;;;;;;;5049492;28;19913;-84
2022/07/03 15:39:06;;;;;;;;;;;;;;;;;;5046603;28;19982;-84
2022/07/03 15:41:31;;;;;;;;;;;;;;;;;;5047581;28;19921;-84
2022/07/03 15:43:59;;;;;;;;;;;;;;;;;;5039100;28;20660;-84
2022/07/03 15:46:25;;;;;;;;;;;;;;;;;;5043500;28;20329;-84
2022/07/03 15:48:50;;;;;;;;;;;;;;;;;;5044291;28;19924;-84
2022/07/03 15:51:15;;;;;;;;;;;;;;;;;;5043391;28;20420;-84
2022/07/03 15:53:40;;;;;;;;;;;;;;;;;;5047083;28;19958;-84
2022/07/03 15:56:10;;;;;;;;;;;;;;;;;;5045364;28;21707;-84
2022/07/03 15:58:38;;;;;;;;;;;;;;;;;;5045196;28;19913;-84
2022/07/03 16:03:47;;;;;;;;;;;;;;;;;;5045997;28;19966;-84
2022/07/03 16:06:12;;;;;;;;;;;;;;;;;;5045419;28;19921;-84
2022/07/03 16:08:38;;;;;;;;;;;;;;;;;;5046815;28;19917;-84
2022/07/03 16:11:03;;;;;;;;;;;;;;;;;;5044206;28;19978;-84
2022/07/03 16:13:31;;;;;;;;;;;;;;;;;;5041170;28;19917;-84
2022/07/03 16:15:56;;;;;;;;;;;;;;;;;;5046387;28;19999;-84
2022/07/03 16:18:21;;;;;;;;;;;;;;;;;;5044954;28;19917;-84
2022/07/03 16:20:49;;;;;;;;;;;;;;;;;;5045105;28;19920;-84
2022/07/03 16:23:16;;;;;;;;;;;;;;;;;;5046445;28;20939;-84
2022/07/03 16:25:41;;;;;;;;;;;;;;;;;;5037859;28;19917;-85
2022/07/03 16:28:06;;;;;;;;;;;;;;;;;;5044245;28;19923;-84
2022/07/03 16:30:34;;;;;;;;;;;;;;;;;;5043846;28;19917;-84
2022/07/03 16:33:00;;;;;;;;;;;;;;;;;;5046500;28;20037;-84
2022/07/03 16:35:25;;;;;;;;;;;;;;;;;;5045810;28;19931;-84
2022/07/03 16:37:50;;;;;;;;;;;;;;;;;;5047335;28;20694;-84
2022/07/03 16:40:15;;;;;;;;;;;;;;;;;;5047937;28;19921;-85
2022/07/03 16:42:40;;;;;;;;;;;;;;;;;;5047700;28;19956;-84
2022/07/03 16:45:06;;;;;;;;;;;;;;;;;;5047676;28;20387;-84
2022/07/03 16:47:32;;;;;;;;;;;;;;;;;;5044902;28;19920;-84
2022/07/03 16:49:57;;;;;;;;;;;;;;;;;;5047940;28;19931;-85
2022/07/03 16:52:22;;;;;;;;;;;;;;;;;;5047992;28;19928;-85
2022/07/03 16:54:48;;;;;;;;;;;;;;;;;;5057086;28;20036;-84
2022/07/03 16:57:13;;;;;;;;;;;;;;;;;;5046781;28;19946;-84
2022/07/03 16:59:38;;;;;;;;;;;;;;;;;;5048475;28;19916;-84
2022/07/03 17:02:03;;;;;;;;;;;;;;;;;;5043282;28;19943;-85
2022/07/03 17:04:28;;;;;;;;;;;;;;;;;;5044114;28;20468;-85